ADDS METAR Data

Data at: 0258 UTC 21 Jun 2018

METAR for:KORD (Chicago/O'Hare Intl, IL, US)
Text:KORD 210251Z 04010KT 10SM BKN015 OVC060 18/14 A2987 RMK AO2 SLP111 T01830139 53003
Temperature: 18.3°C ( 65°F)
Dewpoint: 13.9°C ( 57°F) [RH = 76%]
Pressure (altimeter):29.87 inches Hg (1011.6 mb) [Sea level pressure: 1011.1 mb]
Winds:from the NE (40 degrees) at 12 MPH (10 knots; 5.1 m/s)
Visibility:10 or more sm (16+ km)
Ceiling:1500 feet AGL
Clouds: broken clouds at 1500 feet AGL, overcast cloud deck at 6000 feet AGL